Date,TemperatureHighF,TemperatureAvgF,TemperatureLowF,DewpointHighF,DewpointAvgF,DewpointLowF,HumidityHigh,HumidityAvg,HumidityLow,PressureMaxIn,PressureMinIn,WindSpeedMaxMPH,WindSpeedAvgMPH,GustSpeedMaxMPH,PrecipitationSumIn
2013-1-1,104.0,88.9,69.1,66.3,56.8,43.5,89,41,13,29.89,29.66,22,10,27,0.00
2013-1-2,89.8,73.2,67.5,68.3,61.8,54.7,92,68,31,30.02,29.70,22,14,27,0.00
2013-1-3,85.8,74.3,66.7,64.6,61.5,58.5,82,66,47,30.04,29.90,18,10,22,0.00
2013-1-4,98.4,79.1,61.3,67.3,61.8,47.1,96,61,18,29.98,29.81,18,6,22,0.00
2013-1-5,103.3,83.4,64.8,69.3,63.3,48.3,92,57,16,29.97,29.84,14,5,19,0.00
2013-1-6,95.4,79.9,66.0,68.6,66.0,61.5,98,66,35,30.12,29.95,21,9,27,0.00
2013-1-7,94.5,79.6,66.9,69.4,65.5,61.5,97,66,36,30.15,29.90,17,8,22,0.00
2013-1-8,104.2,89.1,66.9,65.3,56.7,43.7,90,41,16,29.89,29.39,26,15,30,0.00
2013-1-9,99.5,83.1,69.4,65.9,57.1,47.1,70,45,19,29.67,29.29,25,16,31,0.00
2013-1-10,84.2,74.7,67.8,64.8,61.9,59.3,79,65,52,29.78,29.66,21,11,29,0.00
2013-1-11,108.9,85.5,63.3,72.3,64.3,55.8,95,57,18,29.80,29.55,14,5,22,0.00
2013-1-12,117.3,90.9,68.9,71.9,65.6,50.7,91,52,12,30.09,29.56,20,8,26,0.00
2013-1-13,90.7,76.5,69.6,72.7,69.4,66.2,99,80,53,30.10,29.83,21,8,27,0.25
2013-1-14,77.7,69.6,63.1,68.1,60.3,49.2,99,75,43,30.34,30.02,20,9,25,0.05
2013-1-15,85.8,72.7,61.3,64.3,61.6,57.8,99,71,43,30.34,30.13,15,7,21,0.02
2013-1-16,101.3,80.3,62.1,68.2,63.9,60.3,97,62,28,30.19,29.96,16,6,21,0.00
2013-1-17,106.7,85.4,69.3,72.7,66.9,61.4,89,58,24,30.10,29.82,13,5,16,0.00
2013-1-18,113.5,93.2,73.9,73.0,64.7,53.8,86,47,15,29.90,29.65,24,10,30,0.01
2013-1-19,82.9,73.7,65.5,70.5,64.8,58.6,93,74,55,30.18,29.88,16,7,21,0.14
2013-1-20,72.5,68.4,65.3,70.9,67.7,64.7,99,97,89,30.23,30.14,8,4,11,0.52
2013-1-21,85.6,75.9,68.7,71.3,69.5,68.5,99,82,59,30.18,29.10,16,8,20,0.00
2013-1-22,97.0,76.7,65.8,72.7,68.9,65.6,99,81,39,30.07,29.03,28,5,37,0.28
2013-1-23,82.0,74.1,67.5,71.8,68.0,66.4,99,82,64,30.02,29.82,16,6,20,0.00
2013-1-24,86.7,76.1,68.7,71.8,69.0,66.1,98,80,59,30.02,29.88,17,7,21,0.00
2013-1-25,95.0,80.7,68.9,74.3,70.6,68.3,99,75,43,29.91,29.73,17,7,24,0.00
2013-1-26,93.2,81.7,70.0,72.8,69.8,66.5,99,70,42,29.86,29.72,22,9,28,0.01
2013-1-27,77.2,72.6,69.4,73.2,71.3,69.1,99,96,76,29.79,29.73,10,4,15,1.09
2013-1-28,71.1,70.5,69.4,70.8,70.2,69.2,99,99,99,29.75,29.56,16,10,19,2.17
2013-1-29,93.9,75.7,68.9,76.4,70.3,66.0,99,85,47,29.80,29.50,14,7,18,0.70
2013-1-30,86.0,74.7,68.7,71.3,69.5,67.9,99,85,60,29.94,29.81,15,7,21,0.00
2013-1-31,98.4,81.8,68.2,76.7,70.0,64.5,99,72,35,29.93,29.65,11,4,13,0.00
2013-2-1,89.4,74.6,64.6,77.9,69.5,64.3,99,86,51,29.71,29.55,25,6,33,0.65
2013-2-2,71.2,64.0,60.8,65.8,58.6,53.7,99,83,62,29.93,29.63,18,8,24,0.48
2013-2-3,80.4,67.3,55.8,58.9,54.8,49.5,91,66,40,30.05,29.87,15,6,21,0.00
2013-2-4,83.5,71.5,58.8,64.7,61.2,58.6,99,73,47,30.21,30.03,18,6,21,0.00
2013-2-5,85.1,71.9,60.8,65.3,62.3,60.0,99,74,46,30.22,30.10,16,6,21,0.00
2013-2-6,87.3,73.4,61.7,67.7,62.0,57.1,99,71,36,30.15,29.98,13,5,19,0.00
2013-2-7,90.0,75.5,58.3,65.6,61.4,57.4,99,66,35,30.05,29.91,12,4,14,0.00
2013-2-8,100.2,79.3,59.7,68.2,62.2,54.9,98,62,25,30.05,29.91,10,4,15,0.00
2013-2-9,101.3,81.2,63.1,71.3,65.4,59.8,99,64,26,30.02,29.82,10,3,14,0.00
2013-2-10,100.8,80.7,66.7,74.0,67.6,60.3,99,70,27,30.09,29.82,19,7,25,1.26
2013-2-11,81.0,71.3,65.1,73.1,67.5,64.9,99,88,65,30.09,29.99,14,6,17,0.11
2013-2-12,81.7,71.4,66.9,70.6,66.8,62.7,98,86,63,30.14,30.00,18,8,22,0.00
2013-2-13,81.9,71.5,63.9,68.3,62.1,56.6,99,75,44,30.19,30.09,15,6,24,0.00
2013-2-14,84.7,71.8,57.7,65.1,61.1,57.5,99,72,45,30.15,30.03,14,5,18,0.00
2013-2-15,82.2,71.8,62.2,69.0,64.5,59.9,99,79,49,30.13,30.03,17,7,23,0.00
2013-2-16,84.9,71.9,63.3,69.1,64.2,61.3,99,79,48,30.14,30.03,17,6,23,0.00
2013-2-17,84.7,72.3,60.3,69.3,62.7,57.5,99,75,43,30.13,30.03,19,6,23,0.00
2013-2-18,86.7,76.5,60.3,68.7,63.8,59.3,99,67,46,30.07,29.91,19,10,23,0.00
2013-2-19,91.4,75.4,61.7,70.4,65.6,61.4,99,75,39,29.96,29.83,13,5,17,0.00
2013-2-20,86.4,74.7,65.8,73.7,67.1,64.2,99,80,48,30.01,29.88,18,8,24,0.01
2013-2-21,84.9,73.8,65.7,74.0,67.9,63.3,99,84,51,30.01,29.93,20,8,27,0.37
2013-2-22,81.1,70.1,65.3,70.0,67.0,64.0,99,91,57,29.99,29.90,26,11,35,0.50
2013-2-23,77.0,70.5,65.5,76.1,70.2,65.1,99,99,95,29.90,29.61,24,15,30,2.15
2013-2-24,95.2,78.5,67.1,78.4,71.4,66.8,99,81,47,29.89,29.72,21,3,27,0.18
2013-2-25,94.1,79.2,68.4,75.5,72.4,68.1,99,82,53,29.99,29.88,13,5,17,0.00
2013-2-26,89.2,78.3,69.6,72.2,70.1,67.0,99,78,50,30.01,29.89,12,6,16,0.00
2013-2-27,95.5,79.4,66.7,71.5,67.9,65.3,99,71,40,29.95,29.76,7,3,8,0.00
2013-2-28,88.5,76.7,64.8,73.5,68.8,64.5,99,80,50,29.81,29.64,14,6,20,0.37
2013-3-1,66.6,63.9,61.7,66.3,63.7,61.4,99,99,99,29.98,29.75,18,8,23,2.01
2013-3-2,65.8,63.5,61.3,65.6,63.3,61.1,99,99,99,30.07,29.96,15,9,20,1.07
2013-3-3,80.1,70.1,64.8,69.3,66.5,64.5,99,89,63,30.07,30.00,20,10,31,0.08
2013-3-4,80.4,71.8,64.8,67.7,65.3,62.6,99,81,58,30.11,30.02,19,10,26,0.00
2013-3-5,82.0,71.8,63.1,68.3,65.4,62.9,99,82,55,30.10,30.00,14,6,21,0.00
2013-3-6,87.3,74.0,62.4,69.7,64.0,60.3,99,75,42,30.08,29.95,12,5,17,0.00
2013-3-7,89.8,74.7,60.3,70.2,62.9,60.0,99,71,38,30.08,29.94,12,4,14,0.00
2013-3-8,87.3,73.4,60.4,68.7,63.5,58.8,99,74,40,30.12,30.01,13,5,20,0.00
2013-3-9,90.3,76.5,65.3,70.0,64.7,60.1,99,71,37,30.10,29.98,11,5,14,0.00
2013-3-10,89.6,74.6,61.9,71.0,65.0,60.4,99,76,40,30.07,29.94,11,3,14,0.00
2013-3-11,86.7,74.1,62.8,70.2,65.8,62.3,99,78,49,30.08,29.98,16,6,21,0.00
2013-3-12,85.6,73.6,62.2,71.0,64.3,59.8,99,75,46,30.08,29.93,15,5,20,0.00
2013-3-13,91.8,74.3,58.6,67.6,62.5,57.9,99,71,33,29.97,29.75,10,3,12,0.00
2013-3-14,87.4,73.9,59.7,69.9,64.8,59.5,99,76,43,29.89,29.73,11,4,14,0.00
2013-3-15,83.8,72.5,68.2,71.9,69.5,67.7,99,91,63,29.98,29.86,13,4,20,0.07
2013-3-16,92.7,76.7,62.8,71.5,67.8,62.5,99,77,45,29.95,29.65,15,4,20,0.00
2013-3-17,82.4,73.2,61.5,71.4,56.5,45.1,98,60,30,30.03,29.69,17,7,22,0.00
2013-3-18,78.4,67.7,59.7,58.2,54.5,50.9,91,65,43,30.13,30.01,14,6,18,0.00
2013-3-19,81.9,68.2,55.0,61.6,57.4,54.5,99,72,42,30.20,30.09,15,5,20,0.00
2013-3-20,86.9,70.7,58.3,64.0,60.3,57.2,99,73,39,30.20,30.05,14,4,17,0.00
2013-3-21,90.1,73.1,55.6,64.6,59.7,55.3,99,68,32,30.10,29.85,10,3,13,0.00
2013-3-22,89.6,78.2,64.2,66.9,64.8,59.3,98,66,46,29.93,29.85,24,11,30,0.00
2013-3-23,90.5,79.1,70.3,69.3,65.6,61.5,91,65,43,29.96,29.83,18,9,25,0.00
2013-3-24,91.9,79.3,66.0,73.2,64.0,50.7,99,66,25,29.95,29.77,15,5,19,0.00
2013-3-25,93.0,76.6,61.2,67.9,60.2,54.1,94,62,30,30.01,29.89,12,4,17,0.00
2013-3-26,94.5,78.4,66.7,72.0,68.1,65.2,99,74,40,30.04,29.89,7,3,9,0.00
2013-3-27,98.4,79.5,63.5,72.0,66.8,62.0,99,70,31,30.03,29.87,10,3,14,0.00
2013-3-28,92.8,79.3,65.7,70.8,65.9,62.8,99,68,38,29.99,29.79,16,7,22,0.05
2013-3-29,79.2,70.2,59.9,70.1,58.0,50.5,99,68,40,30.02,29.85,16,8,19,0.05
2013-3-30,86.7,69.5,53.2,62.0,57.7,52.8,99,70,40,30.01,29.76,7,3,11,0.00
2013-3-31,83.7,69.6,61.3,62.5,57.7,52.4,99,69,35,29.91,29.73,13,4,14,0.00
2013-4-1,85.6,71.3,60.6,63.5,60.0,57.2,94,70,40,29.98,29.87,10,4,13,0.00
2013-4-2,87.8,70.7,55.8,65.3,56.7,47.6,99,68,26,29.94,29.82,11,4,17,0.00
2013-4-3,77.2,65.7,59.4,64.6,61.0,57.6,98,86,60,30.16,29.94,20,5,25,0.09
2013-4-4,73.8,64.3,59.2,65.6,61.5,58.1,99,91,71,30.30,30.16,15,5,21,0.22
2013-4-5,79.2,66.7,54.9,69.2,58.8,53.3,99,79,42,30.34,30.23,15,5,19,0.01
2013-4-6,80.2,66.0,54.3,64.9,58.9,54.1,99,81,45,30.28,30.11,17,4,18,0.00
2013-4-7,82.9,66.7,56.1,67.4,60.2,55.9,99,83,45,30.17,30.04,12,3,15,0.00
2013-4-8,85.5,66.3,54.0,64.0,58.3,53.1,99,79,33,30.19,30.10,12,4,16,0.01
2013-4-9,81.5,66.9,54.9,65.1,59.5,54.6,99,80,48,30.22,30.11,15,4,19,0.01
2013-4-10,81.7,66.7,53.2,68.1,59.0,53.0,99,80,46,30.18,30.03,12,4,17,0.01
2013-4-11,87.6,68.1,50.5,65.2,55.9,48.2,99,72,28,30.15,30.05,9,3,13,0.00
2013-4-12,83.3,67.9,53.6,64.8,59.0,53.3,99,77,44,30.21,30.06,11,4,15,0.00
2013-4-13,87.1,70.3,54.7,66.8,59.4,54.4,99,73,35,30.08,29.87,8,3,10,0.00
2013-4-14,93.7,71.2,54.3,62.8,56.2,47.9,99,67,23,29.88,29.74,10,2,14,0.00
2013-4-15,92.7,70.9,53.6,62.1,54.9,50.7,98,64,25,29.77,29.62,11,4,14,0.04
2013-4-16,78.3,67.3,62.2,65.8,61.7,59.0,99,84,54,29.88,29.73,11,4,15,0.14
2013-4-17,82.2,68.6,56.1,64.8,59.3,55.9,99,75,43,29.92,29.80,8,3,10,0.00
2013-4-18,81.9,67.1,56.1,63.6,58.5,52.7,99,78,37,29.88,29.76,10,4,14,0.00
2013-4-19,73.2,62.7,53.2,60.2,50.3,43.0,99,68,36,29.87,29.77,19,6,28,0.00
2013-4-20,63.3,58.5,54.5,60.0,52.3,40.2,99,82,50,29.91,29.78,11,6,16,0.52
2013-4-21,77.0,62.1,49.3,58.6,51.6,46.9,99,73,37,29.92,29.77,6,3,10,0.00
2013-4-22,82.0,66.4,55.6,57.9,50.8,43.3,96,63,27,29.77,29.63,16,5,24,0.00
2013-4-23,81.0,63.5,46.8,53.0,48.3,45.1,99,63,31,29.90,29.77,16,5,19,0.00
2013-4-24,79.7,62.7,46.9,55.9,47.4,40.7,99,64,25,30.01,29.87,13,4,17,0.00
2013-4-25,82.9,62.7,47.5,50.3,46.5,42.2,98,61,24,30.10,29.99,9,3,14,0.00
2013-4-26,83.7,63.9,45.0,48.6,45.3,40.9,96,57,23,30.15,30.00,14,5,16,0.00
2013-4-27,88.2,65.3,45.9,54.6,49.2,44.2,96,63,22,30.10,29.93,6,2,8,0.00
2013-4-28,87.3,68.4,50.0,51.3,45.7,34.8,99,52,16,30.03,29.91,18,6,23,0.00
2013-4-29,96.3,69.6,48.6,63.8,47.0,30.9,95,55,10,30.11,30.00,10,3,13,0.00
2013-4-30,84.2,68.2,55.9,67.0,61.6,55.7,99,82,46,30.18,30.03,9,4,14,0.00
2013-5-1,87.3,72.5,60.6,65.0,59.6,53.9,99,70,33,30.05,29.81,19,7,23,0.00
2013-5-2,74.5,64.8,54.1,64.2,50.7,41.8,99,64,32,30.23,29.96,14,6,20,0.01
2013-5-3,79.0,62.2,46.0,56.4,49.4,44.8,99,68,32,30.23,30.00,9,3,11,0.00
2013-5-4,85.8,67.6,49.6,57.6,46.6,37.5,91,52,19,30.12,29.90,19,10,29,0.00
2013-5-5,74.8,61.8,51.4,51.8,49.1,46.3,87,65,41,30.15,30.03,11,4,14,0.00
2013-5-6,73.6,58.5,43.5,54.2,48.6,43.0,99,74,41,30.21,30.10,13,4,14,0.00
2013-5-7,72.5,59.6,47.1,60.1,53.5,46.9,99,82,55,30.27,30.18,9,2,14,0.00
2013-5-8,77.0,60.5,43.9,59.1,53.4,43.6,99,80,51,30.34,30.22,10,3,14,0.00
2013-5-9,80.2,60.6,45.3,66.1,51.7,45.1,99,77,37,30.34,30.22,7,2,10,0.00
2013-5-10,78.3,60.3,42.6,56.4,50.1,42.4,99,73,39,30.35,30.22,10,3,12,0.00
2013-5-11,79.2,63.0,50.9,62.1,56.9,50.6,99,83,50,30.32,30.19,11,4,14,0.00
2013-5-12,82.2,61.2,49.1,65.0,52.9,48.6,99,79,33,30.23,30.06,5,2,7,0.00
2013-5-13,79.3,61.6,47.7,59.7,53.0,47.4,99,77,40,30.05,29.82,13,3,16,0.00
2013-5-14,72.7,63.3,53.6,60.3,53.8,39.4,99,74,42,29.83,29.71,11,6,14,0.07
2013-5-15,69.6,59.1,47.7,45.3,42.0,37.6,74,54,38,29.87,29.73,20,10,25,0.00
2013-5-16,70.3,61.9,53.2,49.9,46.8,44.2,73,58,45,29.79,29.67,23,11,30,0.00
2013-5-17,70.5,59.6,52.7,48.3,43.3,35.5,80,58,29,29.85,29.73,22,13,27,0.00
2013-5-18,68.2,58.6,50.9,45.0,40.6,36.4,73,53,32,29.90,29.77,17,11,20,0.00
2013-5-19,67.1,57.0,49.3,41.9,38.3,35.0,68,51,32,29.95,29.85,16,10,21,0.00
2013-5-20,69.4,56.5,46.6,43.6,40.6,38.1,74,57,36,30.00,29.86,17,9,20,0.00
2013-5-21,74.5,62.7,51.4,43.9,42.1,40.6,70,49,30,29.93,29.79,20,12,25,0.00
2013-5-22,63.3,55.8,50.2,54.8,48.6,43.9,99,78,57,29.86,29.67,7,2,9,0.24
2013-5-23,62.2,55.4,51.4,59.4,54.5,51.2,99,97,85,29.85,29.67,16,6,21,0.31
2013-5-24,68.0,59.1,53.8,57.3,54.4,51.8,99,86,59,29.99,29.85,20,9,24,0.07
2013-5-25,77.9,60.9,50.4,57.2,51.9,48.1,99,76,40,30.12,30.01,11,4,15,0.01
2013-5-26,75.6,54.6,39.6,50.3,43.6,39.3,99,72,30,30.19,30.07,11,4,14,0.00
2013-5-27,67.5,52.8,39.0,57.9,48.7,38.8,99,88,49,30.30,30.14,13,2,14,0.01
2013-5-28,67.8,58.2,50.5,62.4,56.8,50.3,99,95,80,30.38,30.27,9,3,13,0.05
2013-5-29,76.5,58.6,50.9,61.9,54.9,50.6,99,89,52,30.35,30.22,5,2,8,0.00
2013-5-30,82.4,59.2,43.0,58.7,49.6,42.7,99,76,32,30.31,30.16,7,2,8,0.00
2013-5-31,83.8,67.0,43.5,59.2,52.1,43.3,99,63,34,30.27,29.36,8,3,10,0.00
2013-6-1,73.2,60.0,47.7,60.0,52.2,47.4,99,78,52,30.10,29.83,15,5,19,0.00
2013-6-2,67.3,57.8,52.5,60.6,54.6,46.7,99,89,68,29.86,29.57,21,6,24,0.46
2013-6-3,73.8,58.8,46.0,45.9,43.0,39.4,88,58,34,30.04,29.90,9,4,14,0.00
2013-6-4,75.7,54.2,40.3,51.0,45.6,40.0,99,77,40,30.20,30.08,13,4,15,0.00
2013-6-5,70.9,53.1,40.6,55.4,48.6,40.4,99,87,57,30.19,30.06,6,2,8,0.00
2013-6-6,67.3,57.2,49.3,55.9,52.4,49.0,99,85,59,30.12,30.01,5,2,7,0.00
2013-6-7,71.2,64.0,54.9,61.3,57.6,53.9,99,81,65,30.13,29.96,23,9,29,0.00
2013-6-8,64.4,56.4,45.7,58.4,53.6,45.4,99,91,77,30.32,30.16,7,3,10,0.01
2013-6-9,74.5,54.4,41.0,56.3,49.6,40.7,99,86,51,30.25,30.09,5,2,8,0.00
2013-6-10,74.8,55.2,42.1,60.0,52.1,41.8,99,91,53,30.08,29.95,12,4,14,0.01
2013-6-11,72.5,59.2,46.9,59.1,53.1,46.7,99,83,53,30.03,29.90,15,4,17,0.01
2013-6-12,63.3,52.7,45.5,62.2,52.3,45.2,99,99,92,29.89,29.65,11,2,19,0.52
2013-6-13,65.1,56.8,46.4,59.3,51.9,46.1,99,85,59,29.66,29.55,18,7,23,0.01
2013-6-14,63.9,58.0,54.7,53.5,49.7,45.4,95,75,58,29.63,29.55,25,15,31,0.00
2013-6-15,68.5,59.6,54.1,50.1,48.1,45.0,83,67,47,29.80,29.62,17,10,23,0.00
2013-6-16,65.8,54.9,45.1,47.3,44.5,40.8,88,70,45,29.86,29.73,15,9,17,0.00
2013-6-17,63.3,54.5,46.9,49.2,43.9,41.3,82,68,50,29.73,29.64,17,9,21,0.00
2013-6-18,66.6,55.9,48.0,45.7,43.2,39.3,80,64,42,29.88,29.72,16,8,19,0.00
2013-6-19,63.9,55.8,50.0,49.2,45.1,42.1,94,68,50,30.10,29.89,15,5,21,0.00
2013-6-20,65.1,53.9,46.9,47.8,44.4,41.5,88,71,51,30.12,29.99,10,2,14,0.00
2013-6-21,67.1,52.3,43.2,53.4,46.2,42.3,99,82,52,30.03,29.93,8,2,11,0.00
2013-6-22,67.8,52.7,40.1,49.8,45.5,39.6,99,79,46,30.16,30.05,9,3,12,0.00
2013-6-23,66.0,54.4,48.9,53.7,50.0,46.7,98,86,57,30.22,30.13,8,3,11,0.00
2013-6-24,66.4,56.7,50.7,51.9,47.0,37.4,94,73,36,30.11,29.87,12,6,15,0.00
2013-6-25,66.6,55.5,46.0,47.4,45.3,42.7,93,69,47,29.89,29.80,15,5,17,0.00
2013-6-26,67.1,57.1,50.4,60.5,53.6,45.2,99,89,73,29.99,29.87,19,8,26,0.02
2013-6-27,60.6,56.8,53.2,60.4,56.5,53.0,99,99,99,30.03,29.96,13,4,14,0.47
2013-6-28,67.3,57.2,52.5,61.1,55.8,52.3,99,95,49,30.09,30.00,16,3,23,0.13
2013-6-29,69.1,57.7,54.1,61.4,56.2,53.9,99,95,68,30.09,30.01,8,2,11,0.32
2013-6-30,60.8,55.8,51.3,57.9,54.6,51.0,99,96,83,30.12,30.04,11,4,16,0.09
2013-7-1,66.6,57.2,50.9,58.3,54.0,50.4,99,90,68,30.10,30.01,7,3,10,0.01
2013-7-2,75.4,57.5,47.1,59.8,50.4,46.9,99,81,46,30.11,30.00,7,2,10,0.00
2013-7-3,72.9,52.1,38.3,53.2,46.0,38.0,99,83,45,30.13,30.01,7,2,9,0.00
2013-7-4,73.8,57.2,35.4,52.5,46.7,35.2,99,72,46,29.99,29.76,25,9,34,0.00
2013-7-5,71.1,63.4,49.5,53.5,44.8,35.1,94,53,34,29.91,29.69,25,11,34,0.00
2013-7-6,63.1,53.3,42.6,38.5,34.5,29.8,74,51,30,30.08,29.95,21,12,27,0.00
2013-7-7,69.3,53.0,42.3,40.7,36.9,34.4,81,56,31,30.24,30.12,13,7,17,0.00
2013-7-8,73.0,49.8,33.3,44.8,37.9,32.5,98,69,27,30.36,30.26,8,2,11,0.00
2013-7-9,64.8,49.8,36.3,48.8,43.7,34.9,98,81,53,30.43,30.32,14,3,16,0.00
2013-7-10,63.3,52.7,45.7,51.5,48.1,44.8,99,85,62,30.40,30.30,5,1,8,0.00
2013-7-11,73.2,56.2,46.8,54.8,50.6,46.5,99,84,49,30.42,30.31,6,2,8,0.00
2013-7-12,65.8,53.5,41.9,54.4,49.6,41.6,99,88,64,30.34,30.18,11,3,14,0.00
2013-7-13,73.4,55.3,41.4,56.4,49.2,41.1,99,83,48,30.25,30.16,8,2,11,0.00
2013-7-14,70.2,54.8,41.7,55.8,49.6,41.5,99,84,58,30.23,30.12,6,2,8,0.00
2013-7-15,73.6,59.9,51.8,60.3,54.0,51.5,99,83,57,30.13,30.03,11,3,15,0.04
2013-7-16,71.2,61.1,54.5,59.6,56.0,53.4,99,85,59,30.15,30.06,14,3,17,0.00
2013-7-17,79.2,62.5,48.9,64.3,54.4,48.7,99,79,45,30.12,30.00,11,3,15,0.00
2013-7-18,80.1,61.3,45.3,59.1,53.4,45.1,99,79,41,30.09,29.93,10,2,15,0.00
2013-7-19,73.6,57.0,47.5,64.5,54.1,47.2,99,92,51,29.92,29.75,18,4,22,0.12
2013-7-20,69.4,60.4,54.5,59.3,54.3,39.3,99,83,36,29.75,29.57,24,9,28,0.20
2013-7-21,62.6,54.8,46.6,40.7,34.3,27.4,68,48,27,29.92,29.77,19,11,29,0.00
2013-7-22,63.7,52.3,34.7,44.1,34.6,30.8,90,53,31,29.99,29.90,24,9,30,0.00
2013-7-23,64.9,53.6,43.5,40.3,37.5,34.0,71,55,40,30.05,29.92,19,10,23,0.00
2013-7-24,66.7,54.1,46.6,45.5,42.3,40.1,82,66,44,30.22,30.08,16,8,21,0.00
2013-7-25,72.7,52.7,37.4,46.4,42.4,36.9,99,72,37,30.28,30.16,10,3,11,0.00
2013-7-26,69.4,53.1,36.7,48.2,38.8,32.9,99,66,26,30.19,30.08,22,8,25,0.00
2013-7-27,71.8,53.6,37.8,48.4,42.1,34.5,93,68,40,30.30,30.18,9,3,11,0.00
2013-7-28,70.2,53.8,40.8,54.4,47.4,40.6,99,81,51,30.28,30.14,5,2,8,0.00
2013-7-29,78.3,55.5,37.2,52.0,45.3,37.0,99,73,34,30.17,29.99,8,2,9,0.00
2013-7-30,76.8,58.2,42.6,52.6,46.8,41.6,98,70,38,30.00,29.88,12,4,15,0.00
2013-7-31,65.5,57.5,49.5,55.8,53.2,48.4,99,86,67,30.07,29.97,13,5,17,0.01
2013-8-1,73.0,56.9,42.1,61.1,47.0,41.8,99,74,35,30.07,29.22,6,2,9,0.00
2013-8-2,70.9,56.4,39.6,53.4,44.0,39.3,99,69,34,29.20,29.01,20,6,24,0.00
2013-8-3,66.9,58.6,50.5,42.2,39.7,37.8,64,50,35,29.14,29.00,26,13,35,0.00
2013-8-4,66.0,57.8,47.1,45.0,40.9,37.2,77,54,37,29.91,29.04,22,12,30,0.00
2013-8-5,68.0,57.7,48.9,41.1,39.1,36.9,68,51,33,29.96,29.82,22,13,28,0.00
2013-8-6,73.2,62.3,48.0,42.4,40.0,35.3,70,47,28,29.88,29.66,26,12,32,0.00
2013-8-7,75.6,63.0,52.5,53.4,44.4,38.6,98,54,32,29.77,29.59,11,5,17,0.20
2013-8-8,59.9,55.2,50.4,52.8,44.2,38.9,99,68,48,29.84,29.56,19,11,27,0.01
2013-8-9,67.6,57.1,46.2,45.4,41.4,37.5,86,59,34,29.96,29.78,16,10,19,0.00
2013-8-10,75.2,64.6,54.9,42.8,39.3,35.6,53,40,26,29.90,29.79,20,12,26,0.00
2013-8-11,75.4,61.0,42.4,47.3,44.2,38.0,87,56,35,29.93,29.76,18,7,21,0.00
2013-8-12,80.6,61.7,42.6,51.5,44.9,40.7,97,60,25,29.74,29.48,24,9,31,0.00
2013-8-13,71.4,59.7,49.6,46.2,35.7,28.6,79,45,21,29.86,29.74,23,13,28,0.00
2013-8-14,76.3,61.9,49.5,39.1,31.2,19.4,55,35,12,29.85,29.63,18,9,26,0.00
2013-8-15,71.6,60.2,46.9,39.2,28.3,14.4,58,33,12,30.03,29.66,17,8,22,0.00
2013-8-16,75.9,54.5,32.5,40.7,33.9,28.0,91,53,17,30.09,29.82,7,2,9,0.00
2013-8-17,71.4,57.8,40.5,54.8,46.4,37.6,93,68,40,29.78,29.63,29,10,35,0.00
2013-8-18,74.3,62.0,50.2,41.4,37.4,31.0,66,43,21,29.92,29.75,18,10,25,0.00
2013-8-19,71.4,62.0,53.1,39.0,34.8,30.1,51,37,25,29.78,29.57,32,16,85,0.00
2013-8-20,66.7,53.7,45.3,35.2,29.2,18.8,65,42,18,29.87,29.73,17,10,23,0.00
2013-8-21,64.9,52.4,42.3,35.5,32.5,28.0,67,48,27,29.90,29.77,17,11,21,0.00
2013-8-22,66.7,55.0,43.3,38.3,34.9,31.3,71,49,28,29.86,29.70,22,11,27,0.00
2013-8-23,68.4,60.3,52.3,43.4,39.3,35.9,55,46,34,29.84,29.69,30,17,40,0.00
2013-8-24,79.3,63.6,54.1,48.5,46.1,43.5,73,55,29,30.04,29.85,17,9,22,0.00
2013-8-25,79.2,60.8,40.1,51.1,43.3,33.0,97,60,19,30.11,29.95,15,6,20,0.00
2013-8-26,78.6,62.0,43.0,48.8,41.3,34.1,89,51,22,30.11,29.93,10,5,15,0.00
2013-8-27,81.3,60.9,44.1,49.0,43.2,31.9,94,60,18,30.03,29.86,8,3,13,0.00
2013-8-28,80.6,61.6,41.5,50.1,43.3,35.6,99,60,21,30.04,29.91,11,5,15,0.00
2013-8-29,78.6,60.0,43.5,52.7,47.9,42.5,97,69,33,30.07,29.88,8,3,10,0.00
2013-8-30,84.4,69.7,51.4,63.6,50.3,36.4,99,58,23,29.89,29.71,21,8,28,0.00
2013-8-31,81.9,66.8,50.5,52.3,43.0,37.4,79,47,21,30.08,29.86,13,4,18,0.00
2013-9-1,79.9,62.7,43.7,57.8,49.6,42.4,96,67,32,30.21,30.10,13,4,21,0.00
2013-9-2,80.1,63.1,44.4,57.0,50.7,44.1,99,69,30,30.29,30.19,10,4,15,0.00
2013-9-3,79.7,62.7,46.9,58.4,53.2,45.9,99,75,39,30.36,30.24,14,5,19,0.00
2013-9-4,81.7,64.1,44.2,56.9,50.7,44.0,99,67,32,30.35,30.16,10,3,14,0.00
2013-9-5,84.9,66.5,44.4,54.1,46.3,37.5,99,57,19,30.23,30.06,18,6,22,0.00
2013-9-6,91.9,72.8,55.9,60.5,48.9,41.1,80,47,18,30.17,30.00,14,6,17,0.00
2013-9-7,89.2,72.5,54.0,56.6,44.6,26.5,96,47,11,30.07,29.91,20,7,24,0.00
2013-9-8,83.1,68.1,58.3,63.6,58.4,47.6,91,72,43,30.10,29.98,14,6,18,0.00
2013-9-9,85.5,71.9,64.0,63.2,59.4,54.4,91,68,36,30.04,29.72,9,4,11,0.00
2013-9-10,87.4,76.9,59.0,55.0,45.0,37.8,86,36,18,29.68,29.42,30,15,37,0.00
2013-9-11,80.8,69.1,51.4,48.5,34.6,16.2,77,35,10,29.75,29.58,19,9,26,0.00
2013-9-12,78.4,65.4,48.2,45.9,36.9,30.4,70,39,18,29.84,29.65,14,6,19,0.00
2013-9-13,68.7,59.3,51.4,49.4,46.1,42.7,73,62,43,30.00,29.83,14,7,19,0.00
2013-9-14,86.0,65.8,51.8,58.8,53.0,44.2,99,70,25,29.77,29.57,17,6,23,0.05
2013-9-15,78.3,63.1,49.1,60.4,52.6,47.6,97,72,34,29.89,29.76,16,5,20,0.00
2013-9-16,60.1,57.7,53.6,59.8,55.2,51.3,99,92,82,29.84,29.47,6,3,8,0.51
2013-9-17,72.3,64.4,55.6,60.6,55.9,50.7,99,76,51,29.44,29.34,24,12,28,0.15
2013-9-18,78.1,68.9,60.8,55.5,49.6,40.8,81,54,27,29.50,29.39,27,15,34,0.00
2013-9-19,75.6,67.8,61.2,45.6,39.3,31.7,53,37,21,29.64,29.43,22,15,28,0.00
2013-9-20,74.7,64.0,51.3,43.6,36.9,25.4,68,40,17,29.74,29.52,31,14,38,0.00
2013-9-21,79.7,63.7,51.6,47.7,42.1,37.5,69,48,23,29.81,29.67,12,7,16,0.00
2013-9-22,85.3,64.6,45.0,53.9,43.8,30.6,94,56,16,29.80,29.66,12,4,15,0.00
2013-9-23,90.1,72.4,49.1,58.9,41.9,22.5,99,47,10,29.75,29.52,19,7,24,0.01
2013-9-24,89.8,72.3,54.5,58.1,40.2,23.9,74,40,10,29.60,29.36,23,9,30,0.00
2013-9-25,94.6,78.1,59.0,47.6,40.6,27.7,58,31,10,29.66,29.52,13,6,20,0.00
2013-9-26,94.5,74.0,52.3,54.9,39.1,13.3,85,37,10,29.79,29.44,32,10,52,0.01
2013-9-27,82.9,64.3,54.5,46.1,33.9,18.8,65,36,10,29.97,29.80,13,6,14,0.00
2013-9-28,86.9,69.1,46.6,48.0,33.6,15.1,89,41,10,29.76,29.56,29,12,34,0.00
2013-9-29,84.7,70.3,52.9,50.6,36.2,26.6,70,33,12,29.87,29.73,10,6,14,0.00
2013-9-30,88.9,70.5,46.8,51.4,38.9,24.1,95,44,10,29.88,29.66,16,6,21,0.00
2013-10-1,91.9,68.3,51.4,64.2,51.7,41.4,80,59,26,29.70,29.44,35,11,42,0.05
2013-10-2,80.8,68.8,54.3,49.2,40.8,30.1,73,41,17,29.84,29.58,20,10,28,0.00
2013-10-3,69.3,61.3,51.4,49.0,42.5,36.3,79,52,31,29.93,29.53,21,8,29,0.01
2013-10-4,75.9,60.5,44.1,52.0,42.5,35.5,90,58,25,30.01,29.86,12,5,17,0.00
2013-10-5,88.2,67.6,43.7,51.4,38.8,20.8,98,49,10,29.93,29.64,20,9,24,0.00
2013-10-6,93.4,77.1,55.4,42.6,32.5,19.5,57,25,10,29.71,29.45,20,10,24,0.00
2013-10-7,84.0,69.0,52.3,53.8,42.3,27.2,65,41,19,29.74,29.47,20,8,27,0.00
2013-10-8,82.0,66.1,52.3,54.4,48.7,29.4,87,58,16,29.91,29.69,20,7,26,0.00
2013-10-9,89.1,68.3,45.3,52.7,40.5,22.6,95,50,10,29.95,29.70,16,7,21,0.00
2013-10-10,94.6,81.0,59.7,41.3,33.5,24.5,45,21,10,29.76,29.44,28,14,37,0.01
2013-10-11,82.4,73.2,61.7,60.0,53.0,33.0,80,53,17,29.78,29.42,18,9,24,0.00
2013-10-12,95.9,73.2,50.0,59.7,47.3,25.8,97,53,10,29.82,29.52,14,4,17,0.00
2013-10-13,95.9,79.9,61.0,60.0,48.1,26.9,84,43,10,29.52,29.20,33,14,40,0.00
2013-10-14,76.3,66.0,56.3,50.0,41.4,27.6,64,44,17,29.93,29.48,19,9,24,0.02
2013-10-15,78.8,64.3,45.7,39.7,31.9,21.8,65,34,12,30.03,29.85,16,7,22,0.00
2013-10-16,87.4,68.8,48.4,43.7,30.9,19.3,62,32,10,29.94,29.69,20,7,29,0.00
2013-10-17,95.0,75.4,51.1,50.9,39.4,16.9,67,32,10,29.78,29.42,36,13,47,0.00
2013-10-18,69.4,64.7,55.9,49.5,39.5,26.1,72,41,20,30.14,29.83,16,8,20,0.00
2013-10-19,83.7,65.3,45.5,57.2,49.1,42.7,91,61,25,30.15,29.95,20,7,27,0.00
2013-10-20,93.4,73.9,52.9,61.8,51.7,33.0,99,57,12,30.00,29.73,13,4,17,0.00
2013-10-21,98.1,79.7,56.7,61.6,50.3,40.1,92,45,14,29.83,29.63,15,6,22,0.00
2013-10-22,95.7,79.7,63.1,66.3,58.3,51.2,78,50,28,29.75,29.60,16,6,19,0.00
2013-10-23,95.9,84.0,71.1,65.8,51.8,28.5,83,39,11,29.61,29.40,30,15,40,0.00
2013-10-24,80.1,71.5,62.6,47.3,34.9,16.3,57,30,10,29.92,29.62,22,11,30,0.00
2013-10-25,58.5,49.6,48.7,32.3,31.1,26.9,51,49,30,30.02,29.81,3,1,4,0.00
2013-10-26,48.7,48.7,48.7,31.4,31.4,31.4,51,51,51,29.97,29.81,1,1,2,0.00
2013-10-27,67.3,49.6,32.0,55.0,32.7,31.4,67,51,51,30.00,29.82,11,2,16,0.00
2013-10-28,89.1,70.9,57.9,58.2,51.5,33.4,89,58,14,29.93,29.62,16,6,23,0.00
2013-10-29,89.6,67.7,55.6,60.4,56.8,52.0,99,73,31,30.26,28.70,27,5,33,0.58
2013-10-30,77.4,65.9,57.6,56.3,52.4,48.6,91,65,37,30.38,30.25,1,0,1,0.00
2013-10-31,87.1,67.9,49.5,58.1,50.1,34.4,97,61,16,30.44,30.27,1,0,1,0.00
2013-11-1,87.6,71.5,60.4,61.6,57.9,52.1,87,65,31,30.48,30.30,1,0,1,0.00
2013-11-2,97.2,76.9,55.2,62.8,47.1,24.3,97,49,10,30.37,30.09,1,0,2,0.00
2013-11-3,96.4,78.9,58.6,59.1,40.2,24.1,75,35,10,30.35,29.98,2,1,2,0.01
2013-11-4,73.4,63.8,56.1,52.5,45.5,39.2,77,54,29,30.59,30.33,1,0,2,0.00
2013-11-5,74.7,62.4,51.8,51.2,48.3,43.9,82,61,42,30.61,30.50,1,0,1,0.00
2013-11-6,88.0,66.8,46.9,56.1,50.8,41.8,95,62,20,30.54,30.27,1,0,1,0.00
2013-11-7,99.9,75.6,52.3,56.9,49.1,30.7,92,50,10,30.31,30.06,0,0,0,0.00
2013-11-8,101.5,83.3,58.1,61.3,45.4,31.8,85,37,10,30.15,29.89,0,0,0,0.00
2013-11-9,98.8,82.9,68.4,62.3,55.1,43.1,73,42,17,30.18,29.87,0,0,0,0.01
2013-11-10,72.9,65.6,60.8,60.5,57.0,50.8,97,76,46,30.29,30.18,0,0,0,0.04
2013-11-11,70.9,63.3,58.6,64.7,61.3,58.4,99,94,76,30.28,30.17,0,0,0,0.59
2013-11-12,82.0,66.6,58.6,66.9,61.3,57.0,99,85,43,30.19,30.05,0,0,0,0.32
2013-11-13,92.3,74.2,57.2,62.3,45.3,21.8,99,51,10,30.21,30.04,0,0,0,0.00
2013-11-14,91.0,73.1,54.7,56.0,44.9,23.7,84,46,10,30.21,30.03,0,0,0,0.00
2013-11-15,85.5,71.4,61.5,61.1,57.6,53.2,86,64,34,30.22,30.10,0,0,0,0.00
2013-11-16,75.2,65.1,60.6,61.3,57.8,53.9,95,78,51,30.22,30.12,0,0,0,0.13
2013-11-17,68.9,61.8,57.7,57.9,56.7,54.5,99,84,61,30.22,30.16,0,0,0,0.63
2013-11-18,64.0,58.8,56.5,60.8,57.6,55.5,99,96,88,30.19,30.00,0,0,0,1.65
2013-11-19,85.5,69.0,57.4,66.3,60.9,57.1,99,78,42,30.10,30.01,0,0,0,0.00
2013-11-20,88.2,71.6,57.7,67.4,62.3,56.8,99,76,41,30.13,30.01,0,0,0,0.00
2013-11-21,92.1,74.7,61.7,68.8,64.5,60.0,97,73,42,30.12,29.95,0,0,0,0.00
2013-11-22,78.6,70.4,66.7,68.5,65.3,62.8,93,84,68,30.05,29.91,0,0,0,0.15
2013-11-23,79.2,68.1,62.2,67.0,63.8,60.4,99,87,60,29.96,29.80,0,0,0,0.50
2013-11-24,86.4,70.8,54.7,68.3,54.8,43.3,99,65,23,30.00,29.82,0,0,0,0.01
2013-11-25,86.5,68.3,59.0,63.5,57.8,50.1,94,72,31,30.19,29.91,0,0,0,0.06
2013-11-26,80.1,66.5,54.5,55.5,51.7,47.8,86,62,36,30.28,30.16,0,0,0,0.00
2013-11-27,88.7,70.4,53.4,58.6,52.6,44.3,92,59,22,30.30,30.12,0,0,0,0.00
2013-11-28,97.2,78.3,55.6,61.8,51.8,36.2,94,50,12,30.19,29.83,0,0,0,0.00
2013-11-29,82.9,70.0,61.2,70.0,61.6,49.5,99,78,32,30.17,29.74,0,0,0,1.25
2013-11-30,77.0,64.7,55.6,60.3,57.1,54.5,99,78,53,30.44,30.16,0,0,0,0.01
2013-12-1,79.5,67.2,54.1,61.3,56.1,53.0,97,70,46,30.49,30.40,0,0,0,0.00
2013-12-2,74.7,60.8,52.3,61.8,55.6,50.7,95,84,57,30.46,30.27,0,0,0,0.00
2013-12-3,90.7,72.2,53.6,63.8,57.4,51.6,96,65,27,30.30,30.06,0,0,0,0.00
2013-12-4,97.9,77.9,57.4,64.6,54.9,36.4,96,54,13,30.07,29.67,0,0,0,0.00
2013-12-5,83.7,72.2,58.1,70.2,52.5,30.9,93,54,19,30.03,29.61,0,0,0,0.13
2013-12-6,83.1,65.9,54.3,48.6,41.0,27.9,67,44,16,30.28,30.01,0,0,0,0.00
2013-12-7,87.8,69.6,50.5,55.3,48.5,39.9,88,53,21,30.36,30.22,0,0,0,0.00
2013-12-8,93.6,75.6,54.9,58.9,51.9,38.3,88,51,15,30.32,30.05,0,0,0,0.00
2013-12-9,97.7,82.2,61.3,64.7,56.0,45.1,86,48,18,30.09,29.80,0,0,0,0.00
2013-12-10,97.2,86.1,72.1,63.2,54.9,37.8,59,38,17,29.95,29.77,0,0,0,0.01
2013-12-11,91.4,78.2,62.2,66.0,51.6,26.0,85,49,10,30.03,29.82,0,0,0,0.00
2013-12-12,91.8,76.8,61.7,66.5,60.8,55.8,85,60,35,30.07,29.94,0,0,0,0.00
2013-12-13,97.7,79.0,61.2,69.2,61.5,43.1,94,62,16,30.10,29.93,0,0,0,0.00
2013-12-14,91.0,75.7,64.9,67.4,63.8,59.0,92,69,40,30.27,30.01,0,0,0,0.01
2013-12-15,88.9,73.2,61.9,65.4,62.4,58.5,92,71,43,30.29,30.15,0,0,0,0.00
2013-12-16,86.5,74.0,63.5,67.3,63.7,61.6,96,72,46,30.35,30.21,0,0,0,0.00
2013-12-17,90.0,75.2,60.6,65.3,61.1,54.7,96,66,31,30.38,30.24,0,0,0,0.00
2013-12-18,87.1,74.2,61.3,66.0,61.3,58.8,95,67,39,30.43,30.31,0,0,0,0.00
2013-12-19,98.4,77.7,58.6,67.5,60.4,45.0,93,61,17,30.41,30.20,0,0,0,0.00
2013-12-20,106.0,86.5,64.4,66.7,55.4,44.8,87,43,13,30.25,30.03,0,0,0,0.00
2013-12-21,95.2,82.7,72.7,72.2,66.5,60.3,84,59,42,30.21,30.07,0,0,0,0.00
2013-12-22,106.2,87.5,71.4,71.8,65.5,49.5,92,56,16,30.19,29.92,0,0,0,0.00
2013-12-23,99.7,88.0,72.0,67.2,59.0,53.2,80,41,22,30.01,29.85,0,0,0,0.01
2013-12-24,77.7,70.3,66.9,69.1,65.9,63.2,98,86,74,30.30,29.01,0,0,0,0.04
2013-12-25,73.0,69.1,65.8,69.8,66.7,63.6,99,92,83,30.28,30.09,0,0,0,0.44
2013-12-26,90.9,76.2,68.2,72.1,66.7,61.5,99,76,38,30.11,29.93,0,0,0,0.06
2013-12-27,88.3,74.2,61.7,68.3,64.2,61.1,99,73,44,30.09,29.95,0,0,0,0.00
2013-12-28,94.6,77.2,62.6,70.7,66.1,61.3,96,72,41,30.08,29.83,0,0,0,0.00
2013-12-29,85.5,74.3,63.9,72.2,62.6,52.1,97,69,44,30.15,29.78,6,0,10,0.00
2013-12-30,88.9,71.7,57.6,58.5,55.6,53.2,88,60,35,30.12,29.92,11,5,20,0.00
2013-12-31,100.6,75.0,58.1,64.6,57.9,46.4,91,61,17,30.12,29.89,14,4,29,0.00
2014-1-1,99.3,79.0,63.9,66.1,62.9,55.5,93,63,27,30.12,29.92,8,4,18,0.00
2014-1-2,100.9,86.5,72.3,69.6,59.5,46.6,79,45,18,29.89,29.74,16,6,26,0.22